Kezdőlap
METAR-TAF:

METAR-TAF

Repülőterek :

Eastern Slopes Regional Airport

Fryeburg, Maine, Amerikai Egyesült Államok

földrajzi szélesség: 43-59-21N, földrajzi hosszúság: 070-57-01W, magasság: 137 m

Jelenlegi meteorológiai megfigyelések

A jelentés 30 perccel ezelõtt készült, 13:54 UTC
Szélcsend
Hőmérséklet 3°C
Páratartalom 65%
Légköri nyomás 1024 hPa
Látótávolság: 16.1 km
Borult 7500 lábon

METAR: KIZG 181354Z AUTO 00000KT 10SM OVC075 03/M03 A3023 RMK AO2 SLP244 T00331028

Idő: 10:24 (14:24 UTC)


TAF: hiányzik

Meteorológiai megfigyelések és előrejelzések több, mint 4000 repülőtéren (METAR és TAF jelentéseket).

A térképen piros és sárga pontok jelzik az elérhető meteorológiai állomásokat.

Mozgassa az egeret a pont fölött, hogy megjelenjen az állomás neve.

Azután kattintson az időjárási megfigyelések és előrejelzések megtekintéséhez.

A térkép megváltoztatása: kattintson a fekete keresztel jelölt zöld gombra ráközelítéshez, a vonallal jelölt zöld gombra távolításhoz, vagy a zöld nyilakra a szomszédos térképek eléréséhez.


METAR-TAF: